Time;durP1;ratioP1;P1;durP2;ratioP2;P2;SDS_P1;SDS_P2;PMS_P1;PMS_P2;Temp;Humidity;BMP_temperature;BMP_pressure;BME280_temperature;BME280_humidity;BME280_pressure;Samples;Min_cycle;Max_cycle;Signal;HPM_P1;HPM_P2
2022/08/19 00:00:35;;;;;;;;;;;;;;;22.62;100.00;99926.69;3048659;19;951;-50
2022/08/19 00:01:38;;;;;;;;;;;;;;;22.62;100.00;99926.69;3054298;19;1076;-51
2022/08/19 00:02:42;;;;;;;;;;;;;;;22.63;100.00;99928.38;3054425;19;1006;-50
2022/08/19 00:03:51;;;;;;;;;;;;;;;22.60;100.00;99923.31;3054340;19;1014;-50
2022/08/19 00:04:55;;;;;;;;;;;;;;;22.61;100.00;99919.56;3053917;19;1643;-51
2022/08/19 00:05:57;;;;;;;;;;;;;;;22.59;100.00;99920.75;3054943;19;984;-50
2022/08/19 00:07:02;;;;;;;;;;;;;;;22.59;100.00;99927.03;3053916;19;1573;-50
2022/08/19 00:08:03;;;;;;;;;;;;;;;22.57;100.00;99920.97;3054279;19;1136;-50
2022/08/19 00:09:09;;;;;;;;;;;;;;;22.56;100.00;99919.28;3054233;19;1147;-50
2022/08/19 00:10:11;;;;;;;;;;;;;;;22.55;100.00;99919.47;3054752;19;965;-50
2022/08/19 00:11:16;;;;;;;;;;;;;;;22.54;100.00;99918.63;3054226;19;1781;-51
2022/08/19 00:12:26;;;;;;;;;;;;;;;22.53;100.00;99914.19;3053687;19;1130;-51
2022/08/19 00:13:31;;;;;;;;;;;;;;;22.52;100.00;99911.66;3054194;19;1098;-51
2022/08/19 00:14:33;;;;;;;;;;;;;;;22.51;100.00;99910.81;3054182;19;1082;-50
2022/08/19 00:15:37;;;;;;;;;;;;;;;22.49;100.00;99907.44;3052401;19;1873;-51
2022/08/19 00:16:41;;;;;;;;;;;;;;;22.51;100.00;99910.81;3046744;19;1170;-50
2022/08/19 00:17:45;;;;;;;;;;;;;;;22.52;100.00;99903.50;3045934;19;1760;-50
2022/08/19 00:18:47;;;;;;;;;;;;;;;22.52;100.00;99906.22;3045434;19;1333;-50
2022/08/19 00:19:53;;;;;;;;;;;;;;;22.52;100.00;99909.78;3049383;19;1367;-51
2022/08/19 00:20:55;;;;;;;;;;;;;;;22.48;100.00;99904.91;3048863;19;1188;-50
2022/08/19 00:21:59;;;;;;;;;;;;;;;22.51;100.00;99905.38;3049567;19;1165;-50
2022/08/19 00:23:03;;;;;;;;;;;;;;;22.50;100.00;99900.13;3048995;19;963;-50
2022/08/19 00:24:09;;;;;;;;;;;;;;;22.50;100.00;99911.84;3053758;19;1002;-50
2022/08/19 00:25:11;;;;;;;;;;;;;;;22.49;100.00;99904.72;3054531;19;956;-50
2022/08/19 00:26:18;;;;;;;;;;;;;;;22.49;100.00;99898.44;3054410;19;957;-50
2022/08/19 00:27:21;;;;;;;;;;;;;;;22.49;100.00;99902.00;3054499;19;885;-51
2022/08/19 00:28:29;;;;;;;;;;;;;;;22.48;100.00;99905.75;3054209;19;949;-50
2022/08/19 00:29:31;;;;;;;;;;;;;;;22.49;100.00;99901.16;3054630;19;1009;-50
2022/08/19 00:30:36;;;;;;;;;;;;;;;22.49;100.00;99907.44;3057281;19;1053;-50
2022/08/19 00:31:38;;;;;;;;;;;;;;;22.49;100.00;99910.16;3056899;19;1221;-52
2022/08/19 00:32:43;;;;;;;;;;;;;;;22.48;100.00;99903.03;3057074;19;1191;-50
2022/08/19 00:33:44;;;;;;;;;;;;;;;22.47;100.00;99901.34;3056582;19;1068;-51
2022/08/19 00:34:49;;;;;;;;;;;;;;;22.47;100.00;99900.47;3057156;19;937;-50
2022/08/19 00:35:51;;;;;;;;;;;;;;;22.45;100.00;99906.13;3056122;19;1846;-51
2022/08/19 00:36:59;;;;;;;;;;;;;;;22.43;100.00;99905.47;3057308;19;1145;-51
2022/08/19 00:38:01;;;;;;;;;;;;;;;22.41;100.00;99915.69;3055788;19;894;-50
2022/08/19 00:39:06;;;;;;;;;;;;;;;22.40;100.00;99907.72;3048417;19;1741;-50
2022/08/19 00:40:08;;;;;;;;;;;;;;;22.37;100.00;99906.19;3049325;19;1362;-50
2022/08/19 00:41:13;;;;;;;;;;;;;;;22.35;100.00;99902.81;3050000;19;923;-51
2022/08/19 00:42:15;;;;;;;;;;;;;;;22.35;100.00;99908.25;3050673;19;1512;-51
2022/08/19 00:43:25;;;;;;;;;;;;;;;22.33;100.00;99899.47;3049907;19;1330;-50
2022/08/19 00:44:28;;;;;;;;;;;;;;;22.31;100.00;99901.50;3052480;19;895;-50
2022/08/19 00:45:35;;;;;;;;;;;;;;;22.28;100.00;99900.00;3051840;19;1136;-51
2022/08/19 00:46:38;;;;;;;;;;;;;;;22.27;100.00;99894.75;3056569;19;1177;-50
2022/08/19 00:47:43;;;;;;;;;;;;;;;22.28;100.00;99897.28;3057014;19;1181;-50
2022/08/19 00:48:45;;;;;;;;;;;;;;;22.28;100.00;99896.44;3056781;19;1126;-51
2022/08/19 00:49:53;;;;;;;;;;;;;;;22.27;100.00;99889.31;3057145;19;1023;-50
2022/08/19 00:50:55;;;;;;;;;;;;;;;22.27;100.00;99887.44;3055717;19;1100;-50
2022/08/19 00:52:04;;;;;;;;;;;;;;;22.26;100.00;99887.63;3055844;19;947;-52
2022/08/19 00:53:07;;;;;;;;;;;;;;;22.23;100.00;99887.97;3056293;19;1103;-50
2022/08/19 00:54:11;;;;;;;;;;;;;;;22.21;100.00;99890.06;3057581;19;1178;-50
2022/08/19 00:55:19;;;;;;;;;;;;;;;22.20;100.00;99888.38;3057190;19;1843;-50
2022/08/19 00:56:23;;;;;;;;;;;;;;;22.19;100.00;99886.66;3056188;19;1147;-50
2022/08/19 00:57:38;;;;;;;;;;;;;;;22.17;100.00;99883.28;3056353;19;884;-50
2022/08/19 00:58:43;;;;;;;;;;;;;;;22.15;100.00;99885.34;3055462;19;1151;-50
2022/08/19 00:59:46;;;;;;;;;;;;;;;22.14;100.00;99894.53;3056126;19;925;-50
2022/08/19 01:01:07;;;;;;;;;;;;;;;22.11;100.00;99892.16;3050991;19;1317;-50
2022/08/19 01:02:09;;;;;;;;;;;;;;;22.09;100.00;99896.97;3048896;19;1062;-50
2022/08/19 01:03:14;;;;;;;;;;;;;;;22.07;100.00;99893.56;3049511;19;1240;-50
2022/08/19 01:04:19;;;;;;;;;;;;;;;22.04;100.00;99894.78;3049149;19;1215;-50
2022/08/19 01:05:27;;;;;;;;;;;;;;;22.04;100.00;99899.38;3050665;19;1398;-51
2022/08/19 01:06:31;;;;;;;;;;;;;;;22.00;100.00;99881.72;3051616;19;1369;-50
2022/08/19 01:07:36;;;;;;;;;;;;;;;21.98;100.00;99883.78;3051294;19;992;-50
2022/08/19 01:08:41;;;;;;;;;;;;;;;21.96;100.00;99881.25;3055028;19;1172;-50
2022/08/19 01:09:43;;;;;;;;;;;;;;;21.93;100.00;99881.59;3055979;19;1121;-50
2022/08/19 01:10:49;;;;;;;;;;;;;;;21.91;100.00;99884.50;3056365;19;1154;-50
2022/08/19 01:11:51;;;;;;;;;;;;;;;21.89;100.00;99881.09;3055727;19;939;-50
2022/08/19 01:12:55;;;;;;;;;;;;;;;21.88;100.00;99884.84;3055107;19;911;-49
2022/08/19 01:13:57;;;;;;;;;;;;;;;21.86;100.00;99881.47;3056042;19;1051;-50
2022/08/19 01:15:02;;;;;;;;;;;;;;;21.84;100.00;99877.25;3055045;19;893;-49
2022/08/19 01:16:06;;;;;;;;;;;;;;;21.83;100.00;99881.84;3055323;19;1857;-50
2022/08/19 01:17:12;;;;;;;;;;;;;;;21.82;100.00;99885.59;3055533;19;996;-50
2022/08/19 01:18:14;;;;;;;;;;;;;;;21.82;100.00;99879.31;3056717;19;1042;-51
2022/08/19 01:19:21;;;;;;;;;;;;;;;21.81;100.00;99875.75;3055814;19;1150;-50
2022/08/19 01:20:23;;;;;;;;;;;;;;;21.81;100.00;99875.75;3056186;19;975;-50
2022/08/19 01:21:40;;;;;;;;;;;;;;;21.82;100.00;99879.31;3055433;19;1039;-50
2022/08/19 01:22:49;;;;;;;;;;;;;;;21.81;100.00;99878.47;3055460;19;1043;-50
2022/08/19 01:23:54;;;;;;;;;;;;;;;21.81;100.00;99878.47;3048754;19;911;-50
2022/08/19 01:24:56;;;;;;;;;;;;;;;21.73;100.00;99862.25;3049008;19;1195;-50
2022/08/19 01:26:02;;;;;;;;;;;;;;;21.80;100.00;99875.94;3047924;19;1149;-50
2022/08/19 01:27:04;;;;;;;;;;;;;;;21.81;100.00;99874.91;3049955;19;1421;-50
2022/08/19 01:28:17;;;;;;;;;;;;;;;21.78;100.00;99872.53;3050607;19;1165;-51
2022/08/19 01:29:37;;;;;;;;;;;;;;;21.77;100.00;99868.97;3051342;19;1059;-50
2022/08/19 01:30:39;;;;;;;;;;;;;;;21.75;100.00;99873.75;3052150;19;1079;-50
2022/08/19 01:31:54;;;;;;;;;;;;;;;21.73;100.00;99872.25;3054836;19;1050;-50
2022/08/19 01:32:56;;;;;;;;;;;;;;;21.71;100.00;99872.44;3056369;19;1172;-51
2022/08/19 01:34:00;;;;;;;;;;;;;;;21.70;100.00;99864.47;3055789;19;976;-50
2022/08/19 01:35:03;;;;;;;;;;;;;;;21.67;100.00;99860.22;3056801;19;1115;-50
2022/08/19 01:36:12;;;;;;;;;;;;;;;21.67;100.00;99871.09;3055422;19;1867;-50
2022/08/19 01:37:14;;;;;;;;;;;;;;;21.65;100.00;99856.00;3056381;19;1131;-50
2022/08/19 01:38:31;;;;;;;;;;;;;;;21.62;100.00;99857.19;3056072;19;1054;-50
2022/08/19 01:39:33;;;;;;;;;;;;;;;21.61;100.00;99860.97;3055768;19;1226;-49
2022/08/19 01:40:39;;;;;;;;;;;;;;;21.58;100.00;99853.19;3055231;19;1768;-50
2022/08/19 01:41:41;;;;;;;;;;;;;;;21.58;100.00;99845.03;3053664;19;1129;-50
2022/08/19 01:42:47;;;;;;;;;;;;;;;21.56;100.00;99847.06;3054745;19;1637;-50
2022/08/19 01:43:50;;;;;;;;;;;;;;;21.55;100.00;99846.22;3055852;19;1159;-49
2022/08/19 01:45:14;;;;;;;;;;;;;;;21.56;100.00;99847.06;3056119;19;1135;-50
2022/08/19 01:46:16;;;;;;;;;;;;;;;21.55;100.00;99839.97;3049659;19;1064;-50
2022/08/19 01:47:26;;;;;;;;;;;;;;;21.55;100.00;99834.53;3048429;19;1069;-50
2022/08/19 01:48:32;;;;;;;;;;;;;;;21.55;100.00;99839.97;3048684;19;986;-49
2022/08/19 01:49:36;;;;;;;;;;;;;;;21.56;100.00;99828.06;3050943;19;921;-50
2022/08/19 01:50:38;;;;;;;;;;;;;;;21.56;100.00;99831.63;3051101;19;1136;-50
2022/08/19 01:51:42;;;;;;;;;;;;;;;21.58;100.00;99831.44;3050915;19;1452;-50
2022/08/19 01:52:44;;;;;;;;;;;;;;;21.58;100.00;99831.44;3050407;19;1674;-50
2022/08/19 01:53:50;;;;;;;;;;;;;;;21.60;100.00;99834.00;3056243;19;984;-50
2022/08/19 01:54:52;;;;;;;;;;;;;;;21.59;100.00;99833.16;3055582;19;1300;-49
2022/08/19 01:55:57;;;;;;;;;;;;;;;21.61;100.00;99833.81;3055418;19;1106;-50
2022/08/19 01:57:03;;;;;;;;;;;;;;;21.60;100.00;99832.13;3054731;19;1865;-50
2022/08/19 01:58:08;;;;;;;;;;;;;;;21.62;100.00;99837.34;3055299;19;1234;-51
2022/08/19 01:59:12;;;;;;;;;;;;;;;21.63;100.00;99837.16;3055167;19;916;-50
2022/08/19 02:00:17;;;;;;;;;;;;;;;21.62;100.00;99840.91;3055164;19;990;-50
2022/08/19 02:01:19;;;;;;;;;;;;;;;21.65;100.00;99842.44;3054979;19;1170;-50
2022/08/19 02:02:24;;;;;;;;;;;;;;;21.63;100.00;99837.16;3054905;19;1053;-50
2022/08/19 02:03:26;;;;;;;;;;;;;;;21.66;100.00;99839.53;3055061;19;984;-49
2022/08/19 02:04:31;;;;;;;;;;;;;;;21.68;100.00;99844.78;3055394;19;1143;-50
2022/08/19 02:05:33;;;;;;;;;;;;;;;21.67;100.00;99846.66;3055709;19;905;-51
2022/08/19 02:06:37;;;;;;;;;;;;;;;21.68;100.00;99844.78;3056165;19;920;-50
2022/08/19 02:07:40;;;;;;;;;;;;;;;21.69;100.00;99839.19;3055626;19;971;-50
2022/08/19 02:08:45;;;;;;;;;;;;;;;21.68;100.00;99837.47;3049234;19;1140;-51
2022/08/19 02:09:48;;;;;;;;;;;;;;;21.67;100.00;99838.50;3047654;19;1128;-50
2022/08/19 02:10:52;;;;;;;;;;;;;;;21.67;100.00;99833.06;3048221;19;1586;-50
2022/08/19 02:11:55;;;;;;;;;;;;;;;21.51;100.00;99812.31;3049712;19;1321;-50
2022/08/19 02:13:00;;;;;;;;;;;;;;;21.65;100.00;99835.13;3050110;19;1654;-50
2022/08/19 02:14:03;;;;;;;;;;;;;;;21.62;100.00;99834.63;3050693;19;1062;-50
2022/08/19 02:15:07;;;;;;;;;;;;;;;21.61;100.00;99822.97;3050935;19;992;-51
2022/08/19 02:16:09;;;;;;;;;;;;;;;21.63;100.00;99826.31;3054900;19;1248;-50
2022/08/19 02:17:14;;;;;;;;;;;;;;;21.65;100.00;99823.41;3054919;19;1849;-50
2022/08/19 02:18:16;;;;;;;;;;;;;;;21.64;100.00;99822.56;3055491;19;1223;-49
2022/08/19 02:19:20;;;;;;;;;;;;;;;21.64;100.00;99825.28;3055294;19;1768;-50
2022/08/19 02:20:22;;;;;;;;;;;;;;;21.66;100.00;99825.09;3055413;19;1140;-50
2022/08/19 02:21:26;;;;;;;;;;;;;;;21.64;100.00;99825.28;3055654;19;1705;-49
2022/08/19 02:22:28;;;;;;;;;;;;;;;21.69;100.00;99830.19;3055203;19;1011;-50
2022/08/19 02:23:33;;;;;;;;;;;;;;;21.70;100.00;99827.28;3055581;19;1680;-50
2022/08/19 02:24:35;;;;;;;;;;;;;;;21.71;100.00;99834.41;3054769;19;1017;-50
2022/08/19 02:25:40;;;;;;;;;;;;;;;21.73;100.00;99829.66;3055007;19;901;-50
2022/08/19 02:26:42;;;;;;;;;;;;;;;21.74;100.00;99834.03;3055862;19;895;-50
2022/08/19 02:27:46;;;;;;;;;;;;;;;21.75;100.00;99833.00;3055650;19;1013;-50
2022/08/19 02:28:50;;;;;;;;;;;;;;;21.73;100.00;99832.38;3055416;19;1182;-50
2022/08/19 02:29:54;;;;;;;;;;;;;;;21.74;100.00;99833.19;3055672;19;1039;-51
2022/08/19 02:30:56;;;;;;;;;;;;;;;21.75;100.00;99832.16;3050883;19;1020;-50
2022/08/19 02:32:01;;;;;;;;;;;;;;;21.75;100.00;99832.16;3047589;19;944;-49
2022/08/19 02:33:03;;;;;;;;;;;;;;;21.74;100.00;99839.47;3048014;19;1117;-50
2022/08/19 02:34:07;;;;;;;;;;;;;;;21.74;100.00;99841.31;3048686;19;1955;-50
2022/08/19 02:35:09;;;;;;;;;;;;;;;21.73;100.00;99847.81;3050985;19;1121;-50
2022/08/19 02:36:16;;;;;;;;;;;;;;;21.72;100.00;99846.97;3050099;19;1216;-51
2022/08/19 02:38:41;;;;;;;;;;;;;;;21.71;100.00;99841.72;3055393;19;1352;-50
2022/08/19 02:39:47;;;;;;;;;;;;;;;21.70;100.00;99843.59;3055794;19;999;-50
2022/08/19 02:42:07;;;;;;;;;;;;;;;21.68;100.00;99836.63;3054976;19;2042;-50
2022/08/19 02:43:09;;;;;;;;;;;;;;;21.68;100.00;99840.19;3057164;19;1452;-50
2022/08/19 02:44:13;;;;;;;;;;;;;;;21.66;100.00;99839.53;3056874;19;980;-49
2022/08/19 02:45:32;;;;;;;;;;;;;;;21.63;100.00;99826.31;3057579;19;986;-50
2022/08/19 02:46:36;;;;;;;;;;;;;;;21.63;100.00;99841.75;3057326;19;1881;-50
2022/08/19 02:47:38;;;;;;;;;;;;;;;21.62;100.00;99842.78;3057197;19;908;-49
2022/08/19 02:48:43;;;;;;;;;;;;;;;21.60;100.00;99832.13;3057761;19;948;-50
2022/08/19 02:49:45;;;;;;;;;;;;;;;21.60;100.00;99834.84;3057958;19;975;-50
2022/08/19 02:50:55;;;;;;;;;;;;;;;21.62;100.00;99837.34;3057484;19;980;-50
2022/08/19 02:51:57;;;;;;;;;;;;;;;21.63;100.00;99834.44;3057805;19;927;-49
2022/08/19 02:53:01;;;;;;;;;;;;;;;21.61;100.00;99833.81;3057577;19;880;-49
2022/08/19 02:54:03;;;;;;;;;;;;;;;21.63;100.00;99837.16;3057995;19;1007;-50
2022/08/19 02:55:08;;;;;;;;;;;;;;;21.65;100.00;99824.25;3057354;19;984;-50
2022/08/19 02:56:10;;;;;;;;;;;;;;;21.63;100.00;99826.31;3057791;19;920;-49
2022/08/19 02:57:15;;;;;;;;;;;;;;;21.64;100.00;99822.56;3058426;19;1865;-49
2022/08/19 02:58:17;;;;;;;;;;;;;;;21.63;100.00;99829.03;3057919;19;920;-50
2022/08/19 02:59:22;;;;;;;;;;;;;;;21.64;100.00;99822.56;3056924;19;892;-50
2022/08/19 03:00:24;;;;;;;;;;;;;;;21.65;100.00;99834.28;3057108;19;857;-49
2022/08/19 03:01:33;;;;;;;;;;;;;;;21.64;100.00;99833.44;3057484;19;987;-49
2022/08/19 03:02:35;;;;;;;;;;;;;;;21.67;100.00;99833.06;3053915;19;1923;-51
2022/08/19 03:03:40;;;;;;;;;;;;;;;21.66;100.00;99831.38;3054032;19;1026;-50
2022/08/19 03:04:42;;;;;;;;;;;;;;;21.67;100.00;99830.34;3054476;19;1109;-49
2022/08/19 03:05:46;;;;;;;;;;;;;;;21.67;100.00;99827.66;3054071;19;964;-51
2022/08/19 03:06:57;;;;;;;;;;;;;;;21.65;100.00;99823.41;3053770;19;1129;-50
2022/08/19 03:08:14;;;;;;;;;;;;;;;21.65;100.00;99829.69;3051123;19;1168;-50
2022/08/19 03:09:17;;;;;;;;;;;;;;;21.62;100.00;99827.34;3045148;19;915;-50
2022/08/19 03:10:22;;;;;;;;;;;;;;;21.62;100.00;99830.03;3045499;19;1428;-50
2022/08/19 03:11:25;;;;;;;;;;;;;;;21.60;100.00;99825.84;3046461;19;1007;-50
2022/08/19 03:12:30;;;;;;;;;;;;;;;21.55;100.00;99818.22;3049235;19;1113;-50
2022/08/19 03:13:32;;;;;;;;;;;;;;;21.56;100.00;99819.94;3048631;19;919;-50
2022/08/19 03:14:37;;;;;;;;;;;;;;;21.57;100.00;99818.91;3049120;19;1043;-50
2022/08/19 03:15:39;;;;;;;;;;;;;;;21.56;100.00;99819.94;3050548;19;1173;-50
2022/08/19 03:16:48;;;;;;;;;;;;;;;21.56;100.00;99811.78;3054582;19;1078;-50
2022/08/19 03:17:50;;;;;;;;;;;;;;;21.58;100.00;99817.03;3053453;19;1837;-50
2022/08/19 03:18:54;;;;;;;;;;;;;;;21.58;100.00;99820.59;3054687;19;1040;-50
2022/08/19 03:19:56;;;;;;;;;;;;;;;21.59;100.00;99814.13;3054983;19;1121;-50
2022/08/19 03:21:01;;;;;;;;;;;;;;;21.59;100.00;99818.72;3054674;19;1059;-49
2022/08/19 03:22:03;;;;;;;;;;;;;;;21.59;100.00;99814.13;3053754;19;999;-50
2022/08/19 03:23:08;;;;;;;;;;;;;;;21.59;100.00;99819.56;3054598;19;1724;-51
2022/08/19 03:24:10;;;;;;;;;;;;;;;21.59;100.00;99830.44;3054616;19;1253;-50
2022/08/19 03:25:14;;;;;;;;;;;;;;;21.60;100.00;99821.25;3054638;19;1007;-50
2022/08/19 03:26:17;;;;;;;;;;;;;;;21.63;100.00;99826.31;3053942;19;1178;-49
2022/08/19 03:27:22;;;;;;;;;;;;;;;21.63;100.00;99830.88;3055050;19;999;-50
2022/08/19 03:28:24;;;;;;;;;;;;;;;21.62;100.00;99827.34;3054674;19;1039;-50
2022/08/19 03:29:30;;;;;;;;;;;;;;;21.62;100.00;99830.03;3054293;19;1657;-50
2022/08/19 03:30:32;;;;;;;;;;;;;;;21.63;100.00;99831.75;3051883;19;1006;-50
2022/08/19 03:31:36;;;;;;;;;;;;;;;21.59;100.00;99819.56;3045932;19;1102;-50
2022/08/19 03:32:48;;;;;;;;;;;;;;;21.66;100.00;99831.38;3045865;19;1067;-50
2022/08/19 03:33:57;;;;;;;;;;;;;;;21.66;100.00;99836.81;3045985;19;1141;-50
2022/08/19 03:35:02;;;;;;;;;;;;;;;21.69;100.00;99847.31;3049242;19;935;-50
2022/08/19 03:36:11;;;;;;;;;;;;;;;21.71;100.00;99839.84;3048512;19;1309;-50
2022/08/19 03:37:13;;;;;;;;;;;;;;;21.72;100.00;99838.81;3049046;19;1098;-50
2022/08/19 03:38:17;;;;;;;;;;;;;;;21.73;100.00;99842.38;3050965;19;1847;-49
2022/08/19 03:39:19;;;;;;;;;;;;;;;21.75;100.00;99841.16;3054014;19;1085;-51
2022/08/19 03:40:23;;;;;;;;;;;;;;;21.77;100.00;99844.53;3054263;19;955;-51
2022/08/19 03:41:30;;;;;;;;;;;;;;;21.79;100.00;99850.63;3054293;19;1134;-50
2022/08/19 03:42:47;;;;;;;;;;;;;;;21.84;100.00;99850.94;3053815;19;1188;-52
2022/08/19 03:43:50;;;;;;;;;;;;;;;21.86;100.00;99859.72;3054361;19;1047;-50
2022/08/19 03:44:55;;;;;;;;;;;;;;;21.91;100.00;99862.75;3054305;19;1283;-50
2022/08/19 03:46:04;;;;;;;;;;;;;;;21.93;100.00;99871.56;3053814;19;1098;-50
2022/08/19 03:47:08;;;;;;;;;;;;;;;21.98;100.00;99864.75;3054010;19;1675;-50
2022/08/19 03:48:10;;;;;;;;;;;;;;;22.02;100.00;99866.94;3054339;19;1107;-50
2022/08/19 03:49:15;;;;;;;;;;;;;;;22.06;100.00;99870.16;3053737;19;1070;-51
2022/08/19 03:50:21;;;;;;;;;;;;;;;22.10;100.00;99877.72;3054179;19;1763;-50
2022/08/19 03:51:24;;;;;;;;;;;;;;;22.14;100.00;99878.22;3053979;19;1190;-50
2022/08/19 03:52:34;;;;;;;;;;;;;;;22.18;100.00;99884.97;3054037;19;972;-50
2022/08/19 03:53:36;;;;;;;;;;;;;;;22.24;100.00;99889.66;3046465;19;1156;-50
2022/08/19 03:54:41;;;;;;;;;;;;;;;22.29;100.00;99895.41;3045438;19;956;-50
2022/08/19 03:55:44;;;;;;;;;;;;;;;22.37;100.00;99899.91;3045671;19;1289;-50
2022/08/19 03:56:50;;;;;;;;;;;;;;;22.43;100.00;99901.91;3047468;19;1252;-51
2022/08/19 03:57:52;;;;;;;;;;;;;;;22.50;100.00;99909.13;3048165;19;1872;-51
2022/08/19 03:59:02;;;;;;;;;;;;;;;22.56;100.00;99911.13;3049549;19;1032;-50
2022/08/19 04:00:05;;;;;;;;;;;;;;;22.65;100.00;99914.59;3048422;19;1237;-50
2022/08/19 04:01:18;;;;;;;;;;;;;;;22.73;100.00;99921.81;3054043;19;1697;-50
2022/08/19 04:02:22;;;;;;;;;;;;;;;22.83;100.00;99922.41;3054378;19;1137;-51
2022/08/19 04:03:26;;;;;;;;;;;;;;;22.91;100.00;99927.78;3053579;19;1095;-50
2022/08/19 04:04:31;;;;;;;;;;;;;;;23.04;100.00;99927.97;3054766;19;1075;-51
2022/08/19 04:05:33;;;;;;;;;;;;;;;23.34;100.00;99935.06;3056750;19;1050;-50
2022/08/19 04:06:38;;;;;;;;;;;;;;;23.78;100.00;99950.50;3057299;19;995;-50
2022/08/19 04:07:40;;;;;;;;;;;;;;;24.10;100.00;99953.75;3056839;19;953;-50
2022/08/19 04:08:45;;;;;;;;;;;;;;;24.20;100.00;99973.34;3056381;19;1037;-50
2022/08/19 04:09:48;;;;;;;;;;;;;;;24.25;100.00;99979.09;3056404;19;1193;-50
2022/08/19 04:10:52;;;;;;;;;;;;;;;24.27;100.00;99985.22;3056365;19;1675;-50
2022/08/19 04:11:56;;;;;;;;;;;;;;;24.24;100.00;99991.06;3056961;19;1190;-49
2022/08/19 04:13:01;;;;;;;;;;;;;;;24.31;100.00;99994.69;3057626;19;1150;-50
2022/08/19 04:14:03;;;;;;;;;;;;;;;24.49;100.00;99997.81;3056857;19;1080;-50
2022/08/19 04:15:08;;;;;;;;;;;;;;;24.64;100.00;100009.44;3056807;19;1161;-50
2022/08/19 04:16:10;;;;;;;;;;;;;;;24.86;100.00;100009.44;3048138;19;993;-50
2022/08/19 04:17:14;;;;;;;;;;;;;;;25.11;100.00;100018.91;3048409;19;1445;-50
2022/08/19 04:18:16;;;;;;;;;;;;;;;25.47;100.00;100019.53;3048390;19;1849;-50
2022/08/19 04:19:22;;;;;;;;;;;;;;;25.75;100.00;100032.28;3050570;19;1117;-50
2022/08/19 04:20:24;;;;;;;;;;;;;;;26.05;100.00;100043.78;3050638;19;1808;-50
2022/08/19 04:21:29;;;;;;;;;;;;;;;26.32;100.00;100051.03;3051297;19;1164;-50
2022/08/19 04:22:30;;;;;;;;;;;;;;;26.63;100.00;100058.66;3051364;19;1019;-50
2022/08/19 04:23:36;;;;;;;;;;;;;;;26.88;100.00;100061.63;3055957;19;1590;-51
2022/08/19 04:24:45;;;;;;;;;;;;;;;27.11;100.00;100077.66;3055692;19;1491;-50
2022/08/19 04:25:49;;;;;;;;;;;;;;;27.20;100.00;100084.59;3057269;19;1047;-50
2022/08/19 04:26:51;;;;;;;;;;;;;;;27.14;100.00;100085.47;3057144;19;945;-50
2022/08/19 04:27:55;;;;;;;;;;;;;;;27.18;100.00;100090.28;3055843;19;992;-51
2022/08/19 04:28:58;;;;;;;;;;;;;;;27.37;100.00;100083.13;3054894;19;1203;-51
2022/08/19 04:30:03;;;;;;;;;;;;;;;27.52;100.00;100094.69;3052897;19;1713;-50
2022/08/19 04:31:05;;;;;;;;;;;;;;;27.66;100.00;100097.41;3056606;19;1138;-49
2022/08/19 04:32:09;;;;;;;;;;;;;;;27.74;100.00;100099.94;3055853;19;1153;-50
2022/08/19 04:33:12;;;;;;;;;;;;;;;27.80;100.00;100099.06;3056531;19;1071;-50
2022/08/19 04:34:17;;;;;;;;;;;;;;;27.92;100.00;100102.81;3056966;19;1791;-50
2022/08/19 04:35:19;;;;;;;;;;;;;;;28.13;100.00;100108.03;3056235;19;1244;-50
2022/08/19 04:36:32;;;;;;;;;;;;;;;28.36;100.00;100109.41;3056299;19;1002;-50
2022/08/19 04:37:34;;;;;;;;;;;;;;;28.51;100.00;100105.31;3056725;19;1749;-50
2022/08/19 04:38:39;;;;;;;;;;;;;;;28.59;100.00;100115.19;3048374;19;1838;-50
2022/08/19 04:43:40;;;;;;;;;;;;;;;28.81;100.00;100116.56;3050917;19;1270;-50
2022/08/19 04:44:42;;;;;;;;;;;;;;;28.92;100.00;100110.34;3051199;19;1087;-50
2022/08/19 04:45:51;;;;;;;;;;;;;;;29.00;100.00;100120.19;3055336;19;1298;-49
2022/08/19 04:46:57;;;;;;;;;;;;;;;29.06;100.00;100110.25;3056489;19;1223;-51
2022/08/19 04:48:02;;;;;;;;;;;;;;;29.07;100.00;100100.94;3056711;19;1084;-52
2022/08/19 04:49:27;;;;;;;;;;;;;;;28.92;100.00;100115.00;3053857;19;1739;-49
2022/08/19 04:50:29;;;;;;;;;;;;;;;28.44;100.00;100110.00;3055170;19;1334;-50
2022/08/19 04:51:34;;;;;;;;;;;;;;;27.88;100.00;100099.69;3055572;19;1199;-50
2022/08/19 04:52:35;;;;;;;;;;;;;;;27.47;100.00;100093.63;3056522;19;1312;-49
2022/08/19 04:53:40;;;;;;;;;;;;;;;27.17;100.00;100087.78;3056740;19;1085;-50
2022/08/19 04:54:42;;;;;;;;;;;;;;;26.89;100.00;100080.59;3056332;19;1120;-51
2022/08/19 04:55:46;;;;;;;;;;;;;;;26.69;100.00;100079.72;3055389;19;1774;-50
2022/08/19 04:56:49;;;;;;;;;;;;;;;26.46;100.00;100073.78;3056549;19;1251;-50
2022/08/19 04:57:54;;;;;;;;;;;;;;;26.29;100.00;100069.75;3056739;19;1202;-50
2022/08/19 04:58:56;;;;;;;;;;;;;;;26.12;100.00;100061.03;3056236;19;1857;-50
2022/08/19 05:00:00;;;;;;;;;;;;;;;25.99;100.00;100064.56;3055682;19;1160;-51
2022/08/19 05:01:03;;;;;;;;;;;;;;;25.86;100.00;100061.78;3046852;19;1421;-51
2022/08/19 05:02:09;;;;;;;;;;;;;;;25.75;100.00;100063.19;3047763;19;1460;-50
2022/08/19 05:03:10;;;;;;;;;;;;;;;25.68;100.00;100058.75;3047133;19;1468;-51
2022/08/19 05:04:15;;;;;;;;;;;;;;;25.59;100.00;100049.88;3050280;19;992;-49
2022/08/19 05:05:22;;;;;;;;;;;;;;;25.54;100.00;100052.34;3049856;19;1539;-51
2022/08/19 05:06:26;;;;;;;;;;;;;;;25.51;100.00;100051.91;3050211;19;1319;-50
2022/08/19 05:07:28;;;;;;;;;;;;;;;25.47;100.00;100048.75;3050112;19;1044;-51
2022/08/19 05:08:33;;;;;;;;;;;;;;;25.44;100.00;100052.72;3053337;19;1354;-50
2022/08/19 05:09:35;;;;;;;;;;;;;;;25.42;100.00;100053.97;3054993;19;1436;-50
2022/08/19 05:10:59;;;;;;;;;;;;;;;25.41;100.00;100047.66;3056395;19;1144;-50
2022/08/19 05:12:01;;;;;;;;;;;;;;;25.42;100.00;100043.03;3055905;19;1102;-50
2022/08/19 05:13:08;;;;;;;;;;;;;;;25.45;100.00;100043.47;3056577;19;1231;-49
2022/08/19 05:14:12;;;;;;;;;;;;;;;25.45;100.00;100042.63;3056573;19;1212;-51
2022/08/19 05:15:16;;;;;;;;;;;;;;;25.46;100.00;100045.16;3052082;19;1560;-49
2022/08/19 05:16:20;;;;;;;;;;;;;;;25.49;100.00;100049.38;3049409;19;1361;-50
2022/08/19 05:17:24;;;;;;;;;;;;;;;25.51;100.00;100046.44;3053962;19;1106;-51
2022/08/19 05:22:35;;;;;;;;;;;;;;;25.79;100.00;100060.91;3053990;19;1688;-50
2022/08/19 05:23:40;;;;;;;;;;;;;;;25.89;100.00;100066.84;3044600;19;1443;-50
2022/08/19 05:24:42;;;;;;;;;;;;;;;25.99;100.00;100059.09;3045220;19;1313;-51
2022/08/19 05:26:06;;;;;;;;;;;;;;;26.12;100.00;100056.41;3045362;19;1282;-50
2022/08/19 05:27:08;;;;;;;;;;;;;;;26.23;100.00;100056.84;3045169;19;1453;-50
2022/08/19 05:28:12;;;;;;;;;;;;;;;26.33;100.00;100060.06;3049053;19;1049;-50
2022/08/19 05:29:15;;;;;;;;;;;;;;;26.42;100.00;100061.59;3048498;19;1612;-50
2022/08/19 05:30:20;;;;;;;;;;;;;;;26.50;100.00;100064.97;3051076;19;1683;-50
2022/08/19 05:31:44;;;;;;;;;;;;;;;26.60;100.00;100067.28;3054603;19;1508;-49
2022/08/19 05:32:46;;;;;;;;;;;;;;;26.68;100.00;100071.72;3053762;19;1116;-49
2022/08/19 05:33:50;;;;;;;;;;;;;;;26.76;100.00;100074.25;3054390;19;1640;-49
2022/08/19 05:34:52;;;;;;;;;;;;;;;26.77;100.00;100068.56;3054533;19;1077;-49
2022/08/19 05:35:57;;;;;;;;;;;;;;;26.90;100.00;100082.28;3054283;19;1592;-49
2022/08/19 05:36:59;;;;;;;;;;;;;;;26.98;100.00;100083.13;3054193;19;1566;-50
2022/08/19 05:38:04;;;;;;;;;;;;;;;27.04;100.00;100090.53;3053671;19;1230;-49
2022/08/19 05:39:07;;;;;;;;;;;;;;;27.12;100.00;100099.38;3053998;19;1588;-50
2022/08/19 05:40:13;;;;;;;;;;;;;;;27.19;100.00;100097.44;3053506;19;1853;-51
2022/08/19 05:41:14;;;;;;;;;;;;;;;27.24;100.00;100094.09;3054172;19;1303;-50
2022/08/19 05:42:20;;;;;;;;;;;;;;;27.30;100.00;100098.69;3053844;19;1836;-50
2022/08/19 05:43:22;;;;;;;;;;;;;;;27.35;100.00;100107.13;3054538;19;901;-50
2022/08/19 05:44:31;;;;;;;;;;;;;;;27.41;100.00;100100.78;3053985;19;1705;-51
2022/08/19 05:45:33;;;;;;;;;;;;;;;27.45;100.00;100099.31;3049884;19;1698;-51
2022/08/19 05:46:39;;;;;;;;;;;;;;;27.49;100.00;100103.34;3045392;19;1705;-50
2022/08/19 05:47:44;;;;;;;;;;;;;;;27.51;100.00;100106.72;3044886;19;1795;-51